Airfield :
LOGIN :

Register | Disclaimer

   EN    FR    IT 

 










Legend :    VFR   Marginal VFR   IFR   Intensive IFR   Very Intensive IFR
Visi :
Ceiling :
>= 8 km
>= 3000ft
5 to 8 km
1000 to 3000 ft
1500m to 5 km
500 to 1000 ft
800 to 1500m
200 to 500 ft
< 800m
< 200 ft
Symbols :   Thunderstorms  Fog  Heavy snow  Heavy precipitations  Wind > 20 kt
SIGMETs :     Misc.  Thunderstorms  Icing  Turbulence  Mountain Waves  Volcanic Ashes







- Airport Elevation : 135 ft
- IATA code : EDI
- Download approach charts


EGPH - Edinburgh

CURRENT METAR :
  • 251820Z 35009KT 320V020 9999 SCT045 07/M03 Q1019

EXPIRED METARs :
  • 251750Z 35012KT 9999 FEW030CB SCT040 07/M03 Q1018
  • 251720Z 01009KT 9999 FEW032CB SCT040 07/M03 Q1018
  • 251650Z 03010KT 9999 VCSH FEW020 BKN040TCU 08/M02 Q1018
  • 251620Z 03007KT 340V060 9999 VCSH FEW020CB SCT040TCU 07/M02 Q1018
  • 251550Z 36008KT 330V040 9999 FEW018 BKN040 08/M02 Q1018
  • 251520Z 36008KT 300V050 9999 FEW022CB BKN043 09/M02 Q1018

TAF TAF EGPH
Valid from the 25 at 18:00 until the 26 at 18:00 UTC


251659Z 2518/2618 35009KT 9999 SCT045
ATIS : +44 131 339 2823
No reported NOTAMs for that airfield.
1 SIGMET reported for the Scottish FIR (EGPX) :
 
Severe turbulence
EGPX SIGMET 04 VALID 251500/251900 EGRR
EGPX SCOTTISH FIR SEV TURB FCST WI N5604 W00113 - N5633 W00417 - N6100 W00134 - N6100 E00000 - N6000 E00000 - N5903 E00135 - N5856 E00147 - N5604 W00113 SFC/FL060 MOV SE 05KT WKN=



MET'MAP, your aeronautical weather chart ! - Copyright ORBIFLY December 2007 - Disclaimer

ORBIFLY MET'MAP TEAM :

Programming & Development : Alexandra Zaïnal
Concept & Development : Baudouin d'Aumeries
Co-Development & Prog : Marc-Olivier Méhu
Technical & hardware support : Manuel Goepfert

Contact : metmap@orbifly.com




SOURCES & CREDITS :

   NOAA